createdAt,value
2023-05-20T00:00:53.890Z,3.55
2023-05-20T00:03:21.871Z,3.90
2023-05-20T00:05:49.447Z,3.20
2023-05-20T00:08:19.368Z,3.42
2023-05-20T00:10:46.990Z,3.50
2023-05-20T00:13:14.421Z,3.13
2023-05-20T00:15:41.950Z,3.47
2023-05-20T00:18:09.315Z,3.83
2023-05-20T00:20:36.683Z,4.13
2023-05-20T00:23:05.485Z,3.58
2023-05-20T00:25:33.141Z,4.05
2023-05-20T00:28:00.745Z,3.95
2023-05-20T00:30:28.361Z,3.70
2023-05-20T00:32:56.835Z,3.55
2023-05-20T00:35:24.250Z,3.65
2023-05-20T00:37:51.610Z,3.85
2023-05-20T00:40:19.191Z,4.43
2023-05-20T00:42:46.585Z,3.85
2023-05-20T00:45:14.005Z,3.90
2023-05-20T00:47:42.705Z,4.05
2023-05-20T00:50:11.416Z,3.63
2023-05-20T00:52:41.667Z,3.63
2023-05-20T00:55:09.311Z,3.85
2023-05-20T00:57:36.918Z,3.95
2023-05-20T01:00:05.913Z,3.63
2023-05-20T01:02:33.401Z,3.47
2023-05-20T01:05:01.465Z,3.50
2023-05-20T01:07:29.150Z,3.50
2023-05-20T01:09:56.858Z,3.60
2023-05-20T01:12:31.734Z,3.67
2023-05-20T01:15:05.765Z,3.53
2023-05-20T01:17:38.056Z,3.70
2023-05-20T01:20:10.359Z,3.30
2023-05-20T01:22:41.874Z,3.30
2023-05-20T01:25:10.088Z,3.80
2023-05-20T01:27:37.945Z,3.53
2023-05-20T01:30:08.925Z,3.30
2023-05-20T01:32:40.605Z,3.80
2023-05-20T01:35:10.094Z,3.85
2023-05-20T01:37:40.482Z,3.55
2023-05-20T01:40:09.673Z,3.55
2023-05-20T01:42:38.821Z,3.70
2023-05-20T01:45:07.094Z,3.58
2023-05-20T01:47:34.562Z,3.38
2023-05-20T01:50:03.170Z,3.30
2023-05-20T01:52:31.807Z,3.72
2023-05-20T01:54:59.377Z,4.25
2023-05-20T01:57:26.720Z,3.58
2023-05-20T01:59:54.163Z,4.20
2023-05-20T02:02:22.742Z,4.10
2023-05-20T02:04:53.685Z,3.78
2023-05-20T02:07:24.012Z,3.92
2023-05-20T02:09:52.857Z,3.70
2023-05-20T02:12:20.345Z,3.72
2023-05-20T02:14:48.390Z,3.85
2023-05-20T02:17:17.901Z,3.80
2023-05-20T02:19:46.136Z,4.10
2023-05-20T02:22:15.537Z,4.03
2023-05-20T02:24:44.844Z,3.95
2023-05-20T02:27:12.982Z,4.10
2023-05-20T02:29:40.523Z,3.58
2023-05-20T02:32:08.950Z,4.28
2023-05-20T02:34:36.454Z,3.10
2023-05-20T02:37:04.020Z,3.55
2023-05-20T02:39:31.462Z,3.47
2023-05-20T02:41:58.840Z,3.70
2023-05-20T02:44:26.545Z,3.65
2023-05-20T02:46:55.480Z,3.80
2023-05-20T02:49:24.337Z,3.60
2023-05-20T02:51:52.624Z,3.53
2023-05-20T02:54:20.050Z,3.50
2023-05-20T02:56:47.447Z,4.00
2023-05-20T02:59:15.494Z,3.40
2023-05-20T03:01:43.071Z,3.95
2023-05-20T03:04:10.561Z,3.35
2023-05-20T03:06:38.469Z,3.85
2023-05-20T03:09:05.998Z,3.70
2023-05-20T03:11:33.512Z,3.53
2023-05-20T03:14:00.943Z,3.40
2023-05-20T03:16:28.947Z,3.85
2023-05-20T03:18:56.418Z,4.00
2023-05-20T03:21:24.266Z,3.85
2023-05-20T03:23:51.986Z,3.50
2023-05-20T03:26:19.822Z,3.70
2023-05-20T03:28:47.267Z,3.53
2023-05-20T03:31:15.059Z,3.88
2023-05-20T03:33:42.526Z,3.65
2023-05-20T03:36:09.949Z,4.03
2023-05-20T03:38:37.805Z,4.00
2023-05-20T03:41:05.300Z,3.63
2023-05-20T03:43:34.149Z,4.15
2023-05-20T03:46:01.960Z,4.47
2023-05-20T03:48:29.820Z,3.92
2023-05-20T03:50:57.282Z,3.58
2023-05-20T03:53:24.852Z,3.92
2023-05-20T03:55:52.212Z,4.00
2023-05-20T03:58:23.520Z,4.20
2023-05-20T04:00:50.917Z,3.90
2023-05-20T04:03:18.977Z,4.40
2023-05-20T04:05:48.351Z,4.20
2023-05-20T04:08:22.087Z,4.00
2023-05-20T04:10:49.756Z,4.32
2023-05-20T04:13:17.369Z,4.00
2023-05-20T04:15:44.766Z,4.07
2023-05-20T04:18:13.840Z,4.60
2023-05-20T04:20:41.852Z,4.95
2023-05-20T04:23:10.799Z,4.47
2023-05-20T04:25:39.004Z,4.75
2023-05-20T04:28:06.640Z,4.90
2023-05-20T04:30:34.069Z,4.78
2023-05-20T04:33:04.459Z,4.43
2023-05-20T04:35:35.121Z,4.47
2023-05-20T04:38:05.244Z,4.68
2023-05-20T04:40:32.716Z,4.85
2023-05-20T04:43:00.864Z,4.75
2023-05-20T04:45:28.507Z,4.38
2023-05-20T04:47:56.059Z,4.60
2023-05-20T04:50:23.678Z,4.85
2023-05-20T04:52:51.693Z,4.68
2023-05-20T04:55:19.828Z,5.47
2023-05-20T04:57:47.331Z,5.35
2023-05-20T05:00:14.966Z,5.10
2023-05-20T05:02:42.550Z,5.18
2023-05-20T05:05:10.272Z,5.15
2023-05-20T05:07:38.732Z,5.60
2023-05-20T05:10:06.737Z,5.30
2023-05-20T05:12:35.709Z,5.30
2023-05-20T05:15:05.044Z,5.00
2023-05-20T05:17:32.548Z,5.30
2023-05-20T05:20:00.252Z,5.22
2023-05-20T05:22:31.103Z,4.97
2023-05-20T05:24:59.060Z,5.15
2023-05-20T05:27:26.484Z,5.22
2023-05-20T05:29:53.900Z,5.03
2023-05-20T05:32:21.354Z,5.65
2023-05-20T05:34:48.905Z,5.20
2023-05-20T05:37:19.988Z,5.13
2023-05-20T05:39:47.808Z,4.72
2023-05-20T05:42:15.718Z,5.40
2023-05-20T05:44:44.441Z,5.32
2023-05-20T05:47:11.986Z,5.53
2023-05-20T05:49:39.481Z,5.40
2023-05-20T05:52:09.319Z,5.03
2023-05-20T05:54:36.840Z,5.80
2023-05-20T05:57:06.508Z,5.57
2023-05-20T05:59:35.451Z,4.85
2023-05-20T06:02:03.003Z,4.95
2023-05-20T06:04:30.886Z,4.30
2023-05-20T06:06:59.043Z,4.53
2023-05-20T06:09:26.489Z,4.50
2023-05-20T06:11:54.032Z,4.40
2023-05-20T06:14:21.747Z,4.10
2023-05-20T06:16:49.226Z,4.03
2023-05-20T06:19:18.514Z,4.22
2023-05-20T06:21:46.173Z,3.92
2023-05-20T06:24:16.189Z,3.88
2023-05-20T06:26:45.986Z,4.63
2023-05-20T06:29:13.492Z,4.00
2023-05-20T06:31:41.673Z,4.22
2023-05-20T06:34:09.109Z,4.32
2023-05-20T06:36:37.024Z,4.47
2023-05-20T06:39:06.432Z,4.07
2023-05-20T06:41:34.856Z,3.70
2023-05-20T06:44:09.031Z,4.20
2023-05-20T06:46:55.117Z,4.40
2023-05-20T06:49:24.078Z,3.90
2023-05-20T06:51:51.936Z,3.90
2023-05-20T06:54:19.665Z,4.00
2023-05-20T06:56:47.295Z,3.80
2023-05-20T06:59:15.828Z,3.80
2023-05-20T07:01:44.100Z,3.78
2023-05-20T07:04:12.628Z,4.32
2023-05-20T07:06:40.298Z,3.63
2023-05-20T07:09:07.884Z,4.55
2023-05-20T07:11:35.358Z,3.70
2023-05-20T07:14:02.810Z,3.83
2023-05-20T07:16:32.957Z,4.10
2023-05-20T07:19:01.087Z,3.95
2023-05-20T07:21:28.578Z,3.53
2023-05-20T07:24:03.317Z,4.28
2023-05-20T07:26:33.719Z,4.05
2023-05-20T07:29:02.021Z,3.60
2023-05-20T07:31:29.948Z,3.70
2023-05-20T07:33:57.873Z,4.30
2023-05-20T07:36:27.560Z,4.38
2023-05-20T07:39:03.289Z,4.25
2023-05-20T07:41:36.419Z,4.40
2023-05-20T07:44:05.764Z,3.88
2023-05-20T07:46:35.330Z,4.72
2023-05-20T07:49:05.101Z,4.30
2023-05-20T07:51:33.863Z,4.55
2023-05-20T07:54:01.758Z,4.53
2023-05-20T07:56:29.641Z,3.90
2023-05-20T07:58:59.322Z,4.05
2023-05-20T08:01:30.274Z,4.18
2023-05-20T08:03:57.863Z,3.83
2023-05-20T08:06:28.750Z,3.75
2023-05-20T08:08:57.657Z,3.45
2023-05-20T08:11:30.464Z,3.75
2023-05-20T08:13:58.273Z,3.50
2023-05-20T08:16:28.684Z,3.60
2023-05-20T08:18:56.162Z,3.28
2023-05-20T08:21:23.569Z,3.95
2023-05-20T08:23:51.467Z,3.63
2023-05-20T08:26:18.973Z,3.17
2023-05-20T08:28:46.798Z,3.85
2023-05-20T08:31:14.814Z,3.75
2023-05-20T08:33:42.312Z,4.00
2023-05-20T08:36:10.020Z,4.70
2023-05-20T08:38:37.477Z,4.10
2023-05-20T08:41:04.830Z,4.55
2023-05-20T08:43:33.444Z,4.70
2023-05-20T08:46:06.920Z,4.85
2023-05-20T08:48:37.073Z,5.30
2023-05-20T08:51:09.646Z,4.97
2023-05-20T08:53:37.408Z,4.97
2023-05-20T08:56:06.378Z,5.20
2023-05-20T08:58:33.927Z,5.18
2023-05-20T09:01:02.290Z,5.28
2023-05-20T09:03:30.642Z,5.28
2023-05-20T09:06:06.687Z,5.20
2023-05-20T09:08:34.538Z,5.20
2023-05-20T09:11:02.601Z,5.20
2023-05-20T09:13:32.753Z,5.47
2023-05-20T09:16:02.129Z,5.25
2023-05-20T09:18:30.266Z,5.18
2023-05-20T09:20:58.083Z,5.85
2023-05-20T09:23:26.038Z,5.25
2023-05-20T09:25:53.504Z,5.57
2023-05-20T09:28:26.725Z,5.78
2023-05-20T09:31:02.164Z,5.70
2023-05-20T09:33:32.132Z,5.60
2023-05-20T09:36:08.429Z,5.70
2023-05-20T09:38:40.269Z,6.38
2023-05-20T09:41:12.786Z,5.82
2023-05-20T09:43:41.993Z,6.30
2023-05-20T09:46:10.891Z,6.25
2023-05-20T09:48:39.891Z,6.28
2023-05-20T09:51:12.006Z,6.45
2023-05-20T09:56:06.769Z,6.65
2023-05-20T09:58:36.096Z,7.72
2023-05-20T10:01:03.738Z,7.03
2023-05-20T10:03:33.568Z,7.47
2023-05-20T10:06:10.129Z,7.20
2023-05-20T10:09:07.456Z,7.03
2023-05-20T10:11:37.958Z,7.75
2023-05-20T10:14:20.841Z,7.35
2023-05-20T10:17:12.747Z,8.50
2023-05-20T10:19:40.248Z,8.02
2023-05-20T10:22:09.883Z,7.72
2023-05-20T10:24:41.127Z,7.68
2023-05-20T10:27:11.497Z,8.30
2023-05-20T10:32:49.693Z,8.20
2023-05-20T10:35:22.926Z,7.57
2023-05-20T10:37:50.429Z,7.43
2023-05-20T10:40:20.198Z,7.30
2023-05-20T10:42:48.234Z,7.88
2023-05-20T10:45:28.819Z,7.88
2023-05-20T10:48:00.236Z,7.88
2023-05-20T10:50:35.423Z,7.30
2023-05-20T10:53:13.345Z,7.65
2023-05-20T10:55:52.301Z,7.45
2023-05-20T10:58:19.907Z,7.38
2023-05-20T11:00:50.817Z,8.20
2023-05-20T11:03:18.760Z,8.27
2023-05-20T11:05:47.573Z,7.90
2023-05-20T11:08:27.685Z,7.88
2023-05-20T11:11:00.342Z,8.00
2023-05-20T11:13:27.901Z,8.40
2023-05-20T11:15:55.777Z,8.38
2023-05-20T11:18:23.196Z,7.68
2023-05-20T11:20:51.159Z,8.65
2023-05-20T11:23:19.258Z,8.80
2023-05-20T11:25:46.765Z,8.43
2023-05-20T11:28:14.580Z,8.35
2023-05-20T11:30:43.442Z,8.35
2023-05-20T11:33:15.905Z,9.15
2023-05-20T11:35:52.945Z,8.05
2023-05-20T11:38:21.799Z,9.00
2023-05-20T11:40:54.637Z,8.98
2023-05-20T11:43:23.950Z,8.60
2023-05-20T11:46:01.155Z,8.32
2023-05-20T11:48:28.824Z,8.85
2023-05-20T11:50:57.072Z,9.20
2023-05-20T11:53:24.872Z,8.75
2023-05-20T11:55:57.550Z,8.73
2023-05-20T11:58:29.826Z,8.98
2023-05-20T12:01:05.628Z,8.85
2023-05-20T12:03:41.481Z,8.68
2023-05-20T12:06:12.317Z,8.73
2023-05-20T12:08:39.683Z,9.07
2023-05-20T12:11:07.104Z,9.10
2023-05-20T12:13:35.453Z,9.50
2023-05-20T12:16:04.274Z,9.10
2023-05-20T12:18:32.851Z,9.27
2023-05-20T12:21:01.353Z,9.00
2023-05-20T12:23:30.823Z,8.75
2023-05-20T12:25:58.245Z,9.27
2023-05-20T12:28:25.696Z,9.32
2023-05-20T12:30:53.096Z,9.45
2023-05-20T12:33:20.909Z,9.23
2023-05-20T12:35:48.456Z,9.13
2023-05-20T12:38:15.940Z,9.05
2023-05-20T12:40:43.486Z,9.38
2023-05-20T12:43:10.947Z,9.70
2023-05-20T12:45:38.336Z,9.70
2023-05-20T12:48:07.866Z,8.82
2023-05-20T12:50:35.672Z,8.70
2023-05-20T12:53:03.291Z,7.93
2023-05-20T12:55:30.940Z,8.40
2023-05-20T12:57:58.342Z,8.65
2023-05-20T13:00:25.884Z,8.70
2023-05-20T13:02:53.416Z,8.25
2023-05-20T13:05:22.475Z,8.82
2023-05-20T13:07:49.859Z,8.45
2023-05-20T13:10:18.109Z,8.55
2023-05-20T13:12:46.391Z,8.68
2023-05-20T13:15:17.786Z,9.20
2023-05-20T13:17:48.278Z,9.38
2023-05-20T13:20:19.656Z,8.85
2023-05-20T13:22:47.501Z,8.35
2023-05-20T13:25:14.986Z,8.48
2023-05-20T13:27:42.747Z,8.88
2023-05-20T13:30:10.854Z,8.60
2023-05-20T13:32:38.392Z,9.05
2023-05-20T13:35:06.377Z,9.50
2023-05-20T13:37:33.718Z,10.07
2023-05-20T13:40:01.154Z,8.95
2023-05-20T13:42:28.671Z,9.07
2023-05-20T13:44:56.268Z,9.25
2023-05-20T13:47:23.739Z,9.73
2023-05-20T13:49:51.187Z,9.43
2023-05-20T13:52:18.576Z,9.23
2023-05-20T13:54:47.513Z,9.60
2023-05-20T13:57:18.069Z,9.55
2023-05-20T13:59:45.826Z,9.15
2023-05-20T14:02:13.356Z,9.52
2023-05-20T14:04:44.737Z,10.38
2023-05-20T14:07:12.388Z,9.90
2023-05-20T14:09:39.820Z,9.88
2023-05-20T14:12:07.574Z,9.88
2023-05-20T14:14:35.004Z,9.73
2023-05-20T14:17:02.416Z,10.77
2023-05-20T14:19:30.240Z,10.35
2023-05-20T14:22:01.379Z,9.35
2023-05-20T14:24:29.239Z,9.93
2023-05-20T14:26:56.639Z,9.50
2023-05-20T14:29:24.174Z,9.52
2023-05-20T14:31:51.665Z,9.35
2023-05-20T14:34:21.741Z,9.77
2023-05-20T14:36:49.190Z,9.43
2023-05-20T14:39:17.148Z,10.38
2023-05-20T14:41:44.559Z,10.20
2023-05-20T14:44:11.962Z,10.00
2023-05-20T14:46:39.555Z,10.45
2023-05-20T14:49:10.106Z,10.10
2023-05-20T14:51:37.518Z,10.15
2023-05-20T14:54:06.017Z,9.73
2023-05-20T14:56:33.375Z,9.80
2023-05-20T14:59:00.799Z,9.68
2023-05-20T15:01:28.730Z,10.23
2023-05-20T15:03:56.214Z,10.25
2023-05-20T15:06:23.655Z,10.77
2023-05-20T15:08:51.118Z,10.57
2023-05-20T15:11:18.580Z,10.05
2023-05-20T15:13:46.601Z,10.07
2023-05-20T15:16:14.169Z,9.80
2023-05-20T15:18:41.681Z,9.85
2023-05-20T15:21:09.133Z,10.43
2023-05-20T15:23:36.522Z,9.52
2023-05-20T15:26:04.585Z,10.02
2023-05-20T15:28:32.019Z,10.05
2023-05-20T15:31:02.194Z,9.90
2023-05-20T15:33:29.729Z,10.85
2023-05-20T15:35:57.238Z,10.55
2023-05-20T15:38:24.693Z,10.15
2023-05-20T15:40:52.152Z,9.45
2023-05-20T15:43:19.982Z,9.95
2023-05-20T15:45:48.363Z,10.00
2023-05-20T15:48:15.996Z,10.00
2023-05-20T15:50:43.511Z,9.75
2023-05-20T15:53:11.085Z,10.15
2023-05-20T15:55:38.590Z,9.40
2023-05-20T15:58:06.131Z,8.65
2023-05-20T16:00:33.991Z,10.20
2023-05-20T16:03:01.791Z,10.00
2023-05-20T16:05:29.424Z,9.57
2023-05-20T16:07:57.130Z,10.18
2023-05-20T16:10:26.186Z,8.68
2023-05-20T16:12:53.653Z,10.32
2023-05-20T16:15:21.109Z,10.50
2023-05-20T16:17:48.504Z,10.13
2023-05-20T16:20:15.959Z,10.73
2023-05-20T16:22:43.384Z,10.88
2023-05-20T16:25:14.309Z,10.40
2023-05-20T16:27:41.713Z,10.43
2023-05-20T16:30:10.131Z,10.15
2023-05-20T16:32:37.533Z,9.93
2023-05-20T16:35:06.064Z,9.80
2023-05-20T16:37:34.282Z,9.55
2023-05-20T16:40:01.795Z,9.65
2023-05-20T16:42:29.681Z,9.48
2023-05-20T16:44:57.068Z,10.10
2023-05-20T16:47:24.434Z,9.88
2023-05-20T16:49:52.234Z,9.35
2023-05-20T16:52:19.623Z,10.18
2023-05-20T16:54:47.078Z,9.77
2023-05-20T16:57:16.037Z,9.85
2023-05-20T16:59:43.455Z,9.50
2023-05-20T17:02:10.882Z,9.90
2023-05-20T17:04:38.585Z,9.98
2023-05-20T17:07:09.742Z,10.93
2023-05-20T17:09:37.483Z,10.23
2023-05-20T17:12:07.970Z,10.13
2023-05-20T17:14:35.426Z,10.43
2023-05-20T17:17:02.860Z,10.60
2023-05-20T17:19:30.673Z,10.38
2023-05-20T17:22:01.220Z,9.73
2023-05-20T17:24:28.660Z,11.25
2023-05-20T17:26:56.248Z,10.48
2023-05-20T17:29:23.622Z,10.95
2023-05-20T17:31:51.238Z,11.07
2023-05-20T17:34:18.778Z,11.45
2023-05-20T17:36:46.494Z,11.75
2023-05-20T17:39:13.971Z,11.20
2023-05-20T17:41:42.992Z,12.00
2023-05-20T17:44:11.312Z,11.88
2023-05-20T17:46:38.877Z,12.05
2023-05-20T17:49:06.453Z,12.52
2023-05-20T17:51:34.361Z,12.80
2023-05-20T17:54:04.609Z,12.15
2023-05-20T17:56:32.199Z,12.75
2023-05-20T17:58:59.724Z,13.52
2023-05-20T18:01:27.263Z,12.88
2023-05-20T18:03:54.847Z,12.45
2023-05-20T18:06:23.159Z,12.75
2023-05-20T18:08:50.783Z,13.63
2023-05-20T18:11:18.272Z,12.85
2023-05-20T18:13:46.276Z,12.40
2023-05-20T18:16:14.604Z,14.07
2023-05-20T18:18:42.532Z,13.00
2023-05-20T18:21:10.145Z,12.77
2023-05-20T18:23:37.542Z,12.43
2023-05-20T18:26:07.010Z,13.25
2023-05-20T18:28:34.888Z,12.77
2023-05-20T18:31:04.623Z,13.65
2023-05-20T18:33:32.516Z,12.68
2023-05-20T18:36:00.169Z,12.02
2023-05-20T18:38:27.680Z,12.13
2023-05-20T18:40:55.205Z,12.38
2023-05-20T18:43:22.543Z,12.75
2023-05-20T18:45:50.225Z,12.07
2023-05-20T18:48:26.092Z,12.57
2023-05-20T18:50:58.563Z,13.93
2023-05-20T18:53:26.086Z,13.73
2023-05-20T18:55:53.669Z,13.88
2023-05-20T18:58:21.417Z,13.63
2023-05-20T19:00:48.996Z,12.43
2023-05-20T19:03:17.113Z,12.43
2023-05-20T19:08:11.902Z,12.38
2023-05-20T19:10:41.639Z,12.20
2023-05-20T19:13:09.302Z,12.35
2023-05-20T19:15:37.045Z,12.05
2023-05-20T19:18:04.719Z,11.68
2023-05-20T19:20:34.092Z,11.38
2023-05-20T19:23:01.481Z,12.13
2023-05-20T19:25:28.962Z,12.82
2023-05-20T19:27:56.343Z,12.73
2023-05-20T19:30:23.708Z,12.05
2023-05-20T19:32:51.136Z,12.38
2023-05-20T19:35:18.610Z,12.45
2023-05-20T19:37:46.010Z,12.43
2023-05-20T19:40:13.873Z,12.43
2023-05-20T19:42:41.220Z,12.40
2023-05-20T19:45:09.270Z,12.45
2023-05-20T19:47:37.495Z,12.55
2023-05-20T19:50:05.585Z,13.15
2023-05-20T19:52:32.961Z,12.75
2023-05-20T19:55:00.496Z,11.82
2023-05-20T19:57:27.966Z,12.38
2023-05-20T19:59:55.374Z,12.18
2023-05-20T20:02:22.836Z,12.43
2023-05-20T20:04:53.750Z,12.05
2023-05-20T20:07:21.675Z,13.52
2023-05-20T20:09:51.662Z,12.73
2023-05-20T20:12:19.147Z,12.27
2023-05-20T20:14:46.686Z,12.43
2023-05-20T20:17:17.388Z,13.07
2023-05-20T20:19:48.104Z,13.57
2023-05-20T20:22:16.617Z,14.27
2023-05-20T20:24:44.013Z,14.52
2023-05-20T20:27:13.238Z,15.48
2023-05-20T20:29:43.556Z,14.90
2023-05-20T20:32:11.794Z,15.25
2023-05-20T20:34:39.223Z,15.45
2023-05-20T20:37:06.874Z,15.68
2023-05-20T20:39:34.750Z,14.98
2023-05-20T20:42:02.959Z,14.65
2023-05-20T20:44:30.751Z,15.45
2023-05-20T20:46:58.803Z,14.90
2023-05-20T20:49:28.430Z,15.73
2023-05-20T20:51:56.070Z,15.35
2023-05-20T20:54:23.619Z,14.55
2023-05-20T20:56:56.649Z,14.32
2023-05-20T20:59:26.684Z,14.70
2023-05-20T21:01:55.306Z,14.93
2023-05-20T21:04:22.747Z,14.80
2023-05-20T21:06:50.292Z,15.48
2023-05-20T21:09:17.823Z,15.48
2023-05-20T21:11:51.645Z,14.35
2023-05-20T21:14:19.056Z,15.63
2023-05-20T21:16:46.546Z,15.23
2023-05-20T21:19:14.101Z,15.07
2023-05-20T21:21:41.557Z,15.55
2023-05-20T21:24:08.922Z,14.68
2023-05-20T21:26:36.295Z,14.80
2023-05-20T21:29:04.765Z,14.63
2023-05-20T21:31:32.216Z,14.93
2023-05-20T21:33:59.556Z,14.65
2023-05-20T21:36:27.004Z,14.90
2023-05-20T21:38:54.447Z,15.63
2023-05-20T21:41:21.875Z,16.17
2023-05-20T21:43:49.279Z,15.27
2023-05-20T21:46:16.727Z,15.57
2023-05-20T21:48:44.282Z,15.88
2023-05-20T21:51:11.715Z,15.48
2023-05-20T21:53:39.040Z,15.68
2023-05-20T21:56:06.701Z,15.95
2023-05-20T21:58:36.674Z,15.98
2023-05-20T22:01:04.142Z,15.05
2023-05-20T22:03:33.014Z,15.65
2023-05-20T22:06:00.895Z,15.30
2023-05-20T22:08:33.136Z,15.88
2023-05-20T22:11:05.326Z,14.90
2023-05-20T22:13:34.870Z,15.63
2023-05-20T22:16:04.920Z,15.48
2023-05-20T22:18:32.749Z,14.63
2023-05-20T22:21:01.161Z,15.95
2023-05-20T22:23:28.955Z,16.35
2023-05-20T22:25:56.915Z,16.25
2023-05-20T22:28:26.227Z,16.10
2023-05-20T22:30:53.679Z,15.77
2023-05-20T22:33:22.824Z,14.07
2023-05-20T22:35:51.361Z,13.80
2023-05-20T22:38:22.003Z,12.07
2023-05-20T22:40:49.421Z,12.65
2023-05-20T22:43:16.930Z,13.05
2023-05-20T22:45:44.403Z,11.90
2023-05-20T22:48:12.408Z,12.35
2023-05-20T22:50:40.302Z,11.52
2023-05-20T22:53:07.809Z,11.35
2023-05-20T22:55:35.425Z,11.18
2023-05-20T22:58:02.913Z,12.23
2023-05-20T23:00:30.336Z,12.30
2023-05-20T23:02:58.641Z,11.48
2023-05-20T23:05:26.480Z,11.85
2023-05-20T23:07:54.900Z,11.35
2023-05-20T23:10:24.294Z,10.88
2023-05-20T23:12:52.243Z,10.50
2023-05-20T23:15:19.826Z,10.25
2023-05-20T23:17:47.804Z,10.15
2023-05-20T23:20:19.016Z,11.57
2023-05-20T23:22:46.526Z,10.15
2023-05-20T23:25:13.895Z,10.02
2023-05-20T23:27:41.326Z,10.82
2023-05-20T23:30:09.400Z,10.13
2023-05-20T23:32:36.875Z,9.77
2023-05-20T23:35:04.892Z,10.05
2023-05-20T23:37:34.444Z,10.07
2023-05-20T23:40:01.885Z,10.57
2023-05-20T23:42:29.297Z,10.38
2023-05-20T23:44:56.673Z,10.90
2023-05-20T23:47:29.929Z,10.57
2023-05-20T23:49:58.467Z,9.85
2023-05-20T23:52:26.567Z,10.20
2023-05-20T23:54:54.069Z,10.60
2023-05-20T23:57:21.480Z,10.80
2023-05-20T23:59:49.111Z,10.23
